• Join FlightAware (Why Join?)
  • Login
  • US Flag 
Trick or treat! (Boo!!) 
05:46PM EDT


 

Airport Tracker/Info


-or-


 

Live Flight TrackerFlight Track Log ✈ PDT4314 ✈ 27-Oct-2013 ✈ KBGM - KPHL

Flight Track Log - Related Links

Times and Time Zones

All times are in EDT time to prevent confusion due to time zone crossing. See the PDT4314 flight status page for this flight to view local times or setup timezone preferences in your user account.

Time Position Orientation Groundspeed Altitude Reporting Facility
EDT Latitude Longitude Course Direction KTS MPH feet Rate Location/Type
07:09PM 42.0261 -75.9200 180° South  Level Estimated
07:10PM 41.9636 -75.9230 182° South  Level FlightAware Approximate
07:11PM 41.9030 -75.9026 160° South  Level Estimated
07:12PM 41.8408 -75.8943 174° South  Level FlightAware Approximate
07:13PM 41.7802 -75.8736 159° South  Level Estimated
07:14PM 41.7188 -75.8574 169° South  Level FlightAware Approximate
07:15PM 41.6582 -75.8366 153° Southeast  Level Estimated
07:16PM 41.5977 -75.8158 161° South  Level Estimated
07:17PM 41.5378 -75.7918 163° South  Level FlightAware Approximate
07:18PM 41.4779 -75.7677 163° South  Level FlightAware Approximate
07:19PM 41.4173 -75.7474 162° South  Level Estimated
07:20PM 41.3578 -75.7215 162° South  Level FlightAware Approximate
07:21PM 41.2984 -75.6956 162° South  Level FlightAware Approximate
07:22PM 41.2390 -75.6698 162° South  Level FlightAware Approximate
07:23PM 41.1782 -75.6504 159° South  Level Estimated
07:24PM 41.1174 -75.6309 163° South  Level Estimated
07:25PM 41.0582 -75.6041 161° South  Level FlightAware Approximate
07:26PM 40.9991 -75.5773 161° South  Level FlightAware Approximate
07:27PM 40.9399 -75.5505 161° South  Level FlightAware Approximate
07:28PM 40.8788 -75.5325 190° South  Level Estimated
07:29PM 40.8164 -75.5272 176° South  Level FlightAware Approximate
07:30PM 40.7540 -75.5218 176° South  Level FlightAware Approximate
07:31PM 40.6916 -75.5164 176° South  Level FlightAware Approximate
07:32PM 40.6311 -75.4958 187° South  Level Estimated
07:33PM 40.5705 -75.4753 190° South  Level Estimated
07:33PM 40.7500 -75.4667 143° Southeast 233 268 8,000  Level Philadelphia TRACON
07:33PM 40.7333 -75.4667 180° South 233 268 8,000  Level Philadelphia TRACON
07:34PM 40.5090 -75.4897 190° South  Level FlightAware Approximate
07:34PM 40.6667 -75.4667 180° South 216 249 8,000  Level Philadelphia TRACON
07:35PM 40.4474 -75.5041 190° South  Level FlightAware Approximate
07:35PM 40.6167 -75.4833 194° South 220 253 7,900  Level Philadelphia TRACON
07:36PM 40.3884 -75.4768 143° Southeast  Level Estimated
07:36PM 40.5500 -75.5000 191° South 219 252 6,400  Level Philadelphia TRACON
07:37PM 40.3294 -75.4497 143° Southeast  Level Estimated
07:37PM 40.5000 -75.5000 180° South 214 246 5,000  Level Philadelphia TRACON
07:38PM 40.2704 -75.4225 143° Southeast  Level Estimated
07:38PM 40.4333 -75.4667 159° South 221 254 4,900  Level Philadelphia TRACON
07:39PM 40.3833 -75.4333 153° Southeast 225 259 4,900  Level Philadelphia TRACON
07:40PM 40.3167 -75.4000 159° South 218 251 4,900  Level Philadelphia TRACON
07:41PM 40.2667 -75.3667 153° Southeast 215 247 4,900 -540 Level Philadelphia TRACON
07:42PM 40.2167 -75.3333 153° Southeast 226 260 3,900 -540 Descending Philadelphia TRACON
07:43PM 40.1667 -75.2833 143° Southeast 205 236 3,900  Level Philadelphia TRACON
07:44PM 40.1167 -75.2333 143° Southeast 226 260 3,900  Level Philadelphia TRACON
07:45PM 40.0667 -75.2000 153° Southeast 215 247 3,900  Level Philadelphia TRACON
07:46PM 40.0000 -75.1833 169° South 214 246 3,900  Level Philadelphia TRACON
07:47PM 39.9500 -75.1500 153° Southeast 217 250 3,900  Level Philadelphia TRACON
07:48PM 39.9000 -75.1333 166° South 216 249 3,900  Level Philadelphia TRACON
07:49PM 39.8500 -75.1000 153° Southeast 206 237 3,900 -240 Level Philadelphia TRACON
07:50PM 39.7833 -75.0833 169° South 203 234 3,500 -780 Descending Philadelphia TRACON
07:51PM 39.7333 -75.0833 180° South 194 223 2,300 -900 Descending Philadelphia TRACON
07:52PM 39.7333 -75.1500 270° West 183 211 1,900 -180 Descending Philadelphia TRACON
07:53PM 39.7833 -75.1833 333° Northwest 188 216 2,000  Climbing Philadelphia TRACON
07:54PM 39.8000 -75.1333 67° East 203 234 1,900 -60 Descending Philadelphia TRACON
07:55PM 39.7500 -75.1167 166° South 188 216 1,900  Level Philadelphia TRACON
07:56PM 39.7667 -75.1667 293° West 189 217 2,000 -480 Climbing Philadelphia TRACON
07:57PM 39.8167 -75.2000 333° Northwest 181 208 1,000 -720 Descending Philadelphia TRACON
07:58PM 39.8500 -75.2167 339° North 97 112 500 -480 Descending Philadelphia TRACON